Aeroporto :
LOGIN :

Iscrizione | Disclaimer

   EN    FR    IT 

 










Sommario :    VFR   VFR Marginale   IFR   IFR Intensivo   IFR Molto Intensivo
Visibilità : 
Base nubi : 
>= 8 km
>= 3000ft
5 / 8 km
1000 / 3000 ft
1500m / 5 km
500 / 1000 ft
800 / 1500m
200 / 500 ft
< 800m
< 200 ft
Simboli :   Temporali  Nebbia  Neve Forte  Precipitazioni Forti  Vento > 20 kt
SIGMETs :   Varie  Temporali  Ghiacco  Turbolenza  Onda orograficha  Ceneri Vulcaniche







- Altitudine del aeroporto : -15 ft
- Codice IATA : RTM


EHRD - Rotterdam Zestienhoven

ULTIMO METAR :
  • 242025Z AUTO 16012KT 120V190 9999 -SHRA BKN015CB 12/11 Q1002 RERA TEMPO 7000 RA SHRA FEW060CB

METARs OBSOLETI :
  • 241955Z AUTO 17011KT 120V210 9999 -RA FEW012 BKN015CB 13/11 Q1001 RERA TEMPO 7000 RA SHRA FEW060CB
  • 241925Z AUTO 18011KT 150V220 9999 SHRA SCT015CB SCT021 BKN027 14/12 Q1001 TEMPO 7000 RA SHRA FEW060CB
  • 241855Z AUTO 19011KT 140V230 9999 -SHRA SCT015CB 14/12 Q1000 TEMPO 7000 RA SHRA FEW060CB
  • 241825Z AUTO 18014KT 9999 -RA BKN015CB BKN048 14/11 Q1000 RERA REDZ TEMPO 7000 RA SHRA FEW060CB
  • 241755Z AUTO 19019KT 150V220 9999 -RA FEW037 17/10 Q0999 TEMPO 7000 RA SHRA FEW060CB

TAF TAF EHRD
Valido dal 24 a 18 ore il 26 a 00 ore UTC


241714Z 2418/2524 19012KT 9999 RA SHRA SCT035 SCT070CB
TEMPO 2418/2421 7000
BECMG 2419/2422 16008KT CAVOK
BECMG 2505/2508 15015KT
TEMPO 2514/2519 18020G30KT 6000 RA SHRA SCT025TCU BKN040
BECMG 2516/2519 16007KT
Nessun NOTAM noto per questo aeroporto.
1 SIGMET conosciuto per la FIR Amsterdam (EHAA) :
 
Temporali frequenti
EHAA SIGMET 2 VALID 242000/242200 EHDB
EHAA AMSTERDAM FIR FRQ TS OBS WI N5252 E00657 - N5232 E00614 - N5334 E00459 - N5354 E00545 - N5252 E00657 TOP FL350 MOV NW 35KT WKN=



MetMap, La meteo Aeronautica in un colpo d'occhio ! - Copyright ORBIFLY Dicembre 2007 - Disclaimer

ORBIFLY MET'MAP TEAM :

Programmazione e sviluppo : Alexandra Zaïnal
Concezione e sviluppo : Baudouin d'Aumeries
Co-Programmazione e sviluppo : Marc-Olivier Méhu
Supporto tecnico e logistico : Manuel Goepfert
Aiuto per la traduzione : Arnaldo La Scala

Contatto : metmap@orbifly.com




FONTI E CREDITI :

   NOAA